Time;durP1;ratioP1;P1;durP2;ratioP2;P2;SDS_P1;SDS_P2;PMS_P1;PMS_P2;Temp;Humidity;BMP_temperature;BMP_pressure;BME280_temperature;BME280_humidity;BME280_pressure;Samples;Min_cycle;Max_cycle;Signal;HPM_P1;HPM_P2
2021/06/02 00:00:52;;;;;;;1999.90;999.90;;;;;;;16.37;61.50;98494.03;5034634;28;20046;-68
2021/06/02 00:03:30;;;;;;;1999.90;999.90;;;;;;;16.38;61.00;98498.44;5034065;28;20060;-68
2021/06/02 00:05:57;;;;;;;1999.90;999.90;;;;;;;16.50;60.70;98492.75;5031938;28;20123;-68
2021/06/02 00:08:24;;;;;;;1999.90;999.90;;;;;;;16.71;58.74;98497.22;5034617;28;20430;-68
2021/06/02 00:10:52;;;;;;;1999.90;999.90;;;;;;;16.72;58.96;98498.84;5032343;28;20465;-68
2021/06/02 00:13:20;;;;;;;1999.90;999.90;;;;;;;16.91;58.98;98495.31;5033764;28;20057;-68
2021/06/02 00:15:48;;;;;;;1999.90;999.90;;;;;;;16.95;59.96;98501.00;5034371;28;20046;-68
2021/06/02 00:18:16;;;;;;;1999.90;999.90;;;;;;;16.92;60.45;98507.31;5030973;28;20076;-68
2021/06/02 00:20:43;;;;;;;1999.90;999.90;;;;;;;16.82;61.41;98494.69;5031121;28;20072;-68
2021/06/02 00:23:10;;;;;;;1999.90;999.90;;;;;;;16.72;61.61;98504.44;5034113;28;20119;-68
2021/06/02 00:25:36;;;;;;;1999.90;999.90;;;;;;;16.63;62.92;98509.38;5031593;28;20041;-67
2021/06/02 00:28:03;;;;;;;1999.90;999.90;;;;;;;16.60;63.82;98505.34;5032692;28;20049;-68
2021/06/02 00:30:31;;;;;;;1999.90;999.90;;;;;;;16.61;63.22;98508.94;5033099;28;20072;-68
2021/06/02 00:32:58;;;;;;;1999.90;999.90;;;;;;;16.58;63.85;98498.50;5032789;28;20557;-68
2021/06/02 00:35:25;;;;;;;1999.90;999.90;;;;;;;16.36;64.62;98503.56;5032375;28;20271;-68
2021/06/02 00:37:52;;;;;;;1999.90;999.90;;;;;;;15.68;66.86;98499.78;5033398;28;20123;-68
2021/06/02 00:40:43;;;;;;;1999.90;999.90;;;;;;;15.62;66.53;98504.00;5031576;28;20053;-68
2021/06/02 00:43:10;;;;;;;1999.90;999.90;;;;;;;15.75;64.63;98505.56;5033016;28;20053;-68
2021/06/02 00:45:37;;;;;;;1999.90;999.90;;;;;;;15.62;65.02;98515.16;5033396;28;20423;-68
2021/06/02 00:48:04;;;;;;;1999.90;999.90;;;;;;;15.70;65.73;98508.59;5031455;28;20057;-68
2021/06/02 00:50:31;;;;;;;1999.90;999.90;;;;;;;15.60;65.73;98511.91;5033724;28;20115;-68
2021/06/02 00:52:58;;;;;;;1999.90;999.90;;;;;;;15.46;66.69;98507.53;5033339;28;20431;-67
2021/06/02 00:55:24;;;;;;;1999.90;999.90;;;;;;;15.57;66.50;98507.88;5032237;28;20447;-68
2021/06/02 00:57:54;;;;;;;1999.90;999.90;;;;;;;15.32;67.23;98512.72;5033250;28;20111;-68
2021/06/02 01:00:24;;;;;;;1999.90;999.90;;;;;;;15.26;68.19;98503.78;5031898;28;20045;-68
2021/06/02 01:02:52;;;;;;;1999.90;999.90;;;;;;;15.31;67.73;98502.72;5031414;28;20103;-68
2021/06/02 01:05:23;;;;;;;1999.90;999.90;;;;;;;15.27;67.83;98499.03;5033070;28;20450;-68
2021/06/02 01:07:52;;;;;;;1999.90;999.90;;;;;;;14.95;68.94;98499.69;5046417;28;20053;-68
2021/06/02 01:10:21;;;;;;;1999.90;999.90;;;;;;;14.86;68.91;98501.00;5030973;28;20422;-68
2021/06/02 01:12:50;;;;;;;1999.90;999.90;;;;;;;14.48;70.35;98504.94;5031753;28;20138;-68
2021/06/02 01:15:19;;;;;;;1999.90;999.90;;;;;;;14.66;69.84;98503.56;5031825;28;20136;-68
2021/06/02 01:17:46;;;;;;;1999.90;999.90;;;;;;;14.70;69.64;98504.47;5032132;28;20474;-66
2021/06/02 01:20:15;;;;;;;1999.90;999.90;;;;;;;14.74;69.77;98505.41;5033024;28;20057;-68
2021/06/02 01:22:42;;;;;;;1999.90;999.90;;;;;;;14.49;70.00;98510.16;5030335;28;20045;-67
2021/06/02 01:25:11;;;;;;;1999.90;999.90;;;;;;;14.29;71.08;98511.06;5031811;28;20049;-68
2021/06/02 01:27:38;;;;;;;1999.90;999.90;;;;;;;14.06;69.46;98520.66;5032182;28;20075;-65
2021/06/02 01:30:12;;;;;;;1999.90;999.90;;;;;;;14.10;69.82;98520.78;5029295;28;20126;-66
2021/06/02 01:33:03;;;;;;;1999.90;999.90;;;;;;;14.36;69.95;98519.66;5031583;28;20053;-67
2021/06/02 01:35:45;;;;;;;1999.90;999.90;;;;;;;14.37;69.86;98519.31;5029317;28;20089;-67
2021/06/02 01:38:30;;;;;;;1999.90;999.90;;;;;;;13.78;71.57;98530.78;5030889;28;20092;-67
2021/06/02 01:41:21;;;;;;;1999.90;999.90;;;;;;;13.80;71.27;98522.91;5025945;28;20668;-67
2021/06/02 01:44:10;;;;;;;1999.90;999.90;;;;;;;13.97;70.63;98517.16;5029815;28;20055;-67
2021/06/02 01:47:04;;;;;;;1999.90;999.90;;;;;;;13.88;70.37;98519.22;5031593;28;20046;-67
2021/06/02 01:49:33;;;;;;;1999.90;999.90;;;;;;;13.42;70.83;98526.72;5030522;28;20504;-67
2021/06/02 01:52:58;;;;;;;1999.90;999.90;;;;;;;13.61;70.49;98524.25;5029634;28;20041;-67
2021/06/02 01:55:39;;;;;;;1999.90;999.90;;;;;;;13.39;71.15;98525.41;5021938;28;20049;-67
2021/06/02 01:58:41;;;;;;;1999.90;999.90;;;;;;;13.48;70.40;98528.13;5031162;28;20045;-67
2021/06/02 02:01:13;;;;;;;1999.90;999.90;;;;;;;13.53;69.61;98525.13;4977697;28;20149;-67
2021/06/02 02:04:05;;;;;;;1999.90;999.90;;;;;;;13.47;68.55;98532.03;5027247;28;20099;-67
2021/06/02 02:06:56;;;;;;;1999.90;999.90;;;;;;;13.26;69.64;98527.28;5024998;28;20049;-66
2021/06/02 02:10:02;;;;;;;1999.90;999.90;;;;;;;13.69;67.67;98528.09;5031181;28;20386;-67
2021/06/02 02:12:36;;;;;;;1999.90;999.90;;;;;;;13.54;67.95;98529.53;5031302;28;20041;-67
2021/06/02 02:15:17;;;;;;;1999.90;999.90;;;;;;;13.57;67.81;98526.06;5029548;28;20079;-67
2021/06/02 02:17:58;;;;;;;1999.90;999.90;;;;;;;13.62;67.42;98525.88;5029572;28;20099;-67
2021/06/02 02:20:52;;;;;;;1999.90;999.90;;;;;;;13.15;68.88;98531.63;5031351;28;20385;-67
2021/06/02 02:23:18;;;;;;;1999.90;999.90;;;;;;;12.94;69.14;98528.84;5030384;28;20484;-67
2021/06/02 02:26:10;;;;;;;1999.90;999.90;;;;;;;13.11;68.39;98534.25;5029206;28;20488;-67
2021/06/02 02:29:06;;;;;;;1999.90;999.90;;;;;;;13.55;67.14;98531.16;5018797;28;20073;-67
2021/06/02 02:31:46;;;;;;;1999.90;999.90;;;;;;;13.85;67.15;98525.47;5012469;28;20045;-67
2021/06/02 02:34:25;;;;;;;1999.90;999.90;;;;;;;13.50;67.13;98526.63;5028101;28;20085;-67
2021/06/02 02:37:03;;;;;;;1999.90;999.90;;;;;;;13.50;66.94;98526.63;5030039;28;20041;-67
2021/06/02 02:39:52;;;;;;;1999.90;999.90;;;;;;;13.24;67.42;98529.59;5030062;28;20355;-67
2021/06/02 02:42:25;;;;;;;1999.90;999.90;;;;;;;13.48;66.51;98534.47;5030594;28;20046;-67
2021/06/02 02:45:11;;;;;;;1999.90;999.90;;;;;;;13.60;67.13;98542.06;5029718;28;20045;-67
2021/06/02 02:48:11;;;;;;;1999.90;999.90;;;;;;;13.50;66.86;98537.75;5028608;28;20366;-67
2021/06/02 02:51:05;;;;;;;1999.90;999.90;;;;;;;13.58;67.52;98538.81;5031072;28;20080;-67
2021/06/02 02:54:02;;;;;;;1999.90;999.90;;;;;;;13.09;68.70;98539.34;5030112;28;20096;-67
2021/06/02 02:56:50;;;;;;;1999.90;999.90;;;;;;;12.81;69.20;98539.06;5029664;28;20041;-67
2021/06/02 02:59:41;;;;;;;1999.90;999.90;;;;;;;13.18;67.49;98542.06;5030225;28;20049;-67
2021/06/02 03:02:17;;;;;;;1999.90;999.90;;;;;;;13.08;68.01;98540.50;5028425;28;20049;-67
2021/06/02 03:04:51;;;;;;;1999.90;999.90;;;;;;;13.23;66.99;98539.06;5030229;28;20096;-67
2021/06/02 03:07:20;;;;;;;1999.90;999.90;;;;;;;13.12;68.07;98543.44;5029755;28;20046;-67
2021/06/02 03:10:02;;;;;;;1999.90;999.90;;;;;;;13.19;68.78;98543.69;5030654;28;20385;-67
2021/06/02 03:13:02;;;;;;;1999.90;999.90;;;;;;;13.06;68.84;98542.00;5029730;28;20456;-67
2021/06/02 03:15:29;;;;;;;1999.90;999.90;;;;;;;13.08;68.48;98539.69;5029579;28;20119;-67
2021/06/02 03:18:01;;;;;;;1999.90;999.90;;;;;;;12.86;69.51;98547.16;5029595;28;20995;-67
2021/06/02 03:20:40;;;;;;;1999.90;999.90;;;;;;;12.76;69.85;98548.38;5030719;28;20091;-67
2021/06/02 03:23:16;;;;;;;1999.90;999.90;;;;;;;12.46;70.27;98555.88;5030908;28;20053;-67
2021/06/02 03:25:42;;;;;;;1999.90;999.90;;;;;;;12.29;70.52;98556.75;5032491;28;20053;-68
2021/06/02 03:28:30;;;;;;;1999.90;999.90;;;;;;;12.37;69.87;98557.88;5034387;28;20354;-67
2021/06/02 03:31:25;;;;;;;1999.90;999.90;;;;;;;12.70;69.37;98563.59;5032540;28;20045;-67
2021/06/02 03:34:25;;;;;;;1999.90;999.90;;;;;;;12.47;68.30;98568.59;5032721;28;20057;-67
2021/06/02 03:37:18;;;;;;;1999.90;999.90;;;;;;;12.95;67.10;98567.38;5020804;28;20099;-67
2021/06/02 03:40:03;;;;;;;1999.90;999.90;;;;;;;13.01;65.81;98554.94;5034417;28;20045;-67
2021/06/02 03:43:14;;;;;;;1999.90;999.90;;;;;;;13.72;63.31;98566.31;5033471;28;20439;-66
2021/06/02 03:45:48;;;;;;;1999.90;999.90;;;;;;;14.48;60.79;98568.94;5019537;28;20347;-66
2021/06/02 03:48:28;;;;;;;1999.90;999.90;;;;;;;14.51;59.79;98573.78;5032712;28;20042;-66
2021/06/02 03:51:00;;;;;;;1999.90;999.90;;;;;;;14.45;60.30;98570.41;5033377;28;20119;-66
2021/06/02 03:53:46;;;;;;;1999.90;999.90;;;;;;;14.77;59.21;98582.66;5031629;28;20053;-66
2021/06/02 03:56:34;;;;;;;1999.90;999.90;;;;;;;15.67;57.31;98584.56;5032064;28;20049;-66
2021/06/02 03:59:08;;;;;;;1999.90;999.90;;;;;;;15.58;57.78;98586.69;5032896;28;20045;-66
2021/06/02 04:02:02;;;;;;;1999.90;999.90;;;;;;;15.70;56.89;98586.66;5032302;28;20127;-66
2021/06/02 04:04:38;;;;;;;1999.90;999.90;;;;;;;15.45;57.92;98583.13;5032020;28;20054;-67
2021/06/02 04:07:08;;;;;;;1999.90;999.90;;;;;;;15.98;57.16;98591.44;5032867;28;20045;-67
2021/06/02 04:09:52;;;;;;;1999.90;999.90;;;;;;;15.70;57.42;98583.84;5024617;28;20080;-67
2021/06/02 04:12:25;;;;;;;1999.90;999.90;;;;;;;15.61;57.09;98586.00;5027553;28;20054;-66
2021/06/02 04:14:58;;;;;;;1999.90;999.90;;;;;;;15.75;55.20;98580.84;5029125;28;20052;-66
2021/06/02 04:17:27;;;;;;;1999.90;999.90;;;;;;;15.71;55.74;98582.69;5028993;28;20099;-66
2021/06/02 04:19:54;;;;;;;1999.90;999.90;;;;;;;16.37;53.88;98594.47;5027968;28;20045;-67
2021/06/02 04:22:23;;;;;;;1999.90;999.90;;;;;;;16.39;54.18;98597.75;5028928;28;20103;-67
2021/06/02 04:24:50;;;;;;;1999.90;999.90;;;;;;;17.05;52.72;98601.78;5029466;28;20057;-67
2021/06/02 04:27:18;;;;;;;1999.90;999.90;;;;;;;16.96;52.45;98598.38;5026812;28;20452;-67
2021/06/02 04:29:49;;;;;;;1999.90;999.90;;;;;;;16.59;53.31;98600.63;5027166;28;20354;-66
2021/06/02 04:32:17;;;;;;;1999.90;999.90;;;;;;;16.32;54.06;98603.13;5028166;28;20076;-66
2021/06/02 04:34:45;;;;;;;1999.90;999.90;;;;;;;16.72;53.43;98604.94;5027015;28;20450;-67
2021/06/02 04:37:12;;;;;;;1999.90;999.90;;;;;;;16.98;52.65;98603.59;5029055;28;20077;-66
2021/06/02 04:39:41;;;;;;;1999.90;999.90;;;;;;;17.43;52.88;98613.41;5028431;28;20061;-67
2021/06/02 04:42:10;;;;;;;1999.90;999.90;;;;;;;16.51;53.00;98619.97;5027176;28;20410;-66
2021/06/02 04:44:38;;;;;;;1999.90;999.90;;;;;;;16.24;56.67;98612.47;5026539;28;20135;-66
2021/06/02 04:47:07;;;;;;;1999.90;999.90;;;;;;;16.42;53.32;98615.72;5026598;28;20049;-66
2021/06/02 04:49:48;;;;;;;1999.90;999.90;;;;;;;16.37;54.69;98611.22;5026227;28;20403;-66
2021/06/02 04:52:48;;;;;;;1999.90;999.90;;;;;;;16.75;53.99;98617.38;5039100;28;20080;-66
2021/06/02 04:55:33;;;;;;;1999.90;999.90;;;;;;;15.18;57.55;98620.91;5027970;28;20064;-66
2021/06/02 04:58:38;;;;;;;1999.90;999.90;;;;;;;15.26;59.02;98625.56;5022524;28;20401;-66
2021/06/02 05:01:34;;;;;;;1999.90;999.90;;;;;;;16.17;55.98;98635.41;5024926;28;20792;-67
2021/06/02 05:04:30;;;;;;;1999.90;999.90;;;;;;;15.97;56.96;98634.44;5015368;28;20053;-67
2021/06/02 05:07:24;;;;;;;1999.90;999.90;;;;;;;16.02;56.04;98635.00;5027567;28;20057;-67
2021/06/02 05:10:29;;;;;;;1999.90;999.90;;;;;;;15.46;57.79;98630.16;4986821;28;20049;-67
2021/06/02 05:13:15;;;;;;;1999.90;999.90;;;;;;;16.68;55.64;98637.53;4966018;28;20082;-67
2021/06/02 05:15:57;;;;;;;1999.90;999.90;;;;;;;17.48;53.52;98632.72;4963857;28;20440;-67
2021/06/02 05:18:54;;;;;;;1999.90;999.90;;;;;;;16.60;54.79;98644.09;5010947;28;20172;-67
2021/06/02 05:24:56;;;;;;;1999.90;999.90;;;;;;;16.54;53.32;98661.13;5026615;28;20346;-66
2021/06/02 05:27:37;;;;;;;1999.90;999.90;;;;;;;17.06;54.85;98650.09;5028872;28;20099;-67
2021/06/02 05:30:07;;;;;;;;;;;;;;;17.01;53.58;98644.78;5028537;28;20089;-67
2021/06/02 05:33:01;;;;;;;1999.90;999.90;;;;;;;17.13;53.87;98653.06;5028503;28;19987;-67
2021/06/02 05:35:50;;;;;;;1999.90;999.90;;;;;;;16.55;54.86;98657.19;5025925;28;20508;-67
2021/06/02 05:38:34;;;;;;;1999.90;999.90;;;;;;;16.95;52.94;98663.00;5027655;28;20057;-67
2021/06/02 05:41:10;;;;;;;1999.90;999.90;;;;;;;17.37;52.45;98666.00;5027910;28;20053;-67
2021/06/02 05:43:58;;;;;;;1999.90;999.90;;;;;;;16.58;52.99;98663.19;5028522;28;20053;-67
2021/06/02 05:47:08;;;;;;;1999.90;999.90;;;;;;;17.16;53.38;98657.91;5026211;28;20049;-67
2021/06/02 05:49:52;;;;;;;1999.90;999.90;;;;;;;17.55;52.72;98663.63;5027472;28;20407;-67
2021/06/02 05:53:01;;;;;;;1999.90;999.90;;;;;;;16.96;52.42;98673.00;5038114;28;20053;-67
2021/06/02 05:55:43;;;;;;;1999.90;999.90;;;;;;;18.09;49.56;98664.81;5028516;28;20053;-65
2021/06/02 05:58:18;;;;;;;;;;;;;;;17.60;50.11;98670.91;5022162;28;20426;-66
2021/06/02 06:01:04;;;;;;;1999.90;999.90;;;;;;;16.92;52.53;98670.09;5025710;28;20415;-66
2021/06/02 06:03:58;;;;;;;1999.90;999.90;;;;;;;18.16;49.58;98666.91;5027249;28;20045;-66
2021/06/02 06:06:48;;;;;;;1999.90;999.90;;;;;;;18.37;49.03;98668.53;5027825;28;20141;-66
2021/06/02 06:09:45;;;;;;;1999.90;999.90;;;;;;;18.46;47.50;98669.13;5012039;28;20062;-66
2021/06/02 06:12:26;;;;;;;1999.90;999.90;;;;;;;18.36;47.18;98673.31;5028680;28;20219;-65
2021/06/02 06:15:15;;;;;;;1999.90;999.90;;;;;;;16.89;50.50;98676.41;5025380;28;20049;-65
2021/06/02 06:18:19;;;;;;;1999.90;999.90;;;;;;;17.68;49.42;98674.69;5026961;28;20103;-65
2021/06/02 06:21:20;;;;;;;1999.90;999.90;;;;;;;17.95;48.78;98675.69;5027334;28;20049;-66
2021/06/02 06:23:55;;;;;;;1999.90;999.90;;;;;;;18.27;50.09;98678.34;5028026;28;20107;-66
2021/06/02 06:26:24;;;;;;;1999.90;999.90;;;;;;;18.08;48.28;98671.56;5026250;28;20500;-66
2021/06/02 06:29:12;;;;;;;1999.90;999.90;;;;;;;18.79;47.82;98664.91;5027962;28;20084;-66
2021/06/02 06:31:43;;;;;;;1999.90;999.90;;;;;;;19.44;46.96;98674.41;5027981;28;20100;-66
2021/06/02 06:34:17;;;;;;;1999.90;999.90;;;;;;;19.30;44.77;98677.78;5028396;28;20096;-66
2021/06/02 06:36:47;;;;;;;1999.90;999.90;;;;;;;19.96;45.32;98683.16;5029516;28;20045;-66
2021/06/02 06:39:15;;;;;;;1999.90;999.90;;;;;;;18.73;45.86;98689.63;5025618;28;20077;-66
2021/06/02 06:41:43;;;;;;;1999.90;999.90;;;;;;;18.78;47.43;98682.91;5026432;28;20053;-66
2021/06/02 06:44:12;;;;;;;1999.90;999.90;;;;;;;18.71;46.59;98685.56;5028936;28;20393;-65
2021/06/02 06:46:40;;;;;;;1999.90;999.90;;;;;;;18.15;45.58;98682.09;5025544;28;20433;-66
2021/06/02 06:49:09;;;;;;;1999.90;999.90;;;;;;;18.66;48.06;98679.09;5026649;28;20049;-65
2021/06/02 06:51:38;;;;;;;1999.90;999.90;;;;;;;18.42;47.41;98676.63;5026594;28;20401;-65
2021/06/02 06:54:09;;;;;;;1999.90;999.90;;;;;;;19.61;45.37;98678.66;5027794;28;20053;-67
2021/06/02 06:56:36;;;;;;;1999.90;999.90;;;;;;;20.45;41.36;98673.72;5030251;28;20103;-66
2021/06/02 06:59:04;;;;;;;1999.90;999.90;;;;;;;18.44;43.96;98679.88;5029354;28;20057;-66
2021/06/02 07:01:31;;;;;;;1999.90;999.90;;;;;;;18.55;43.63;98680.91;5030475;28;20106;-65
2021/06/02 07:03:58;;;;;;;1999.90;999.90;;;;;;;18.60;44.96;98683.38;5031325;28;20158;-66
2021/06/02 07:06:25;;;;;;;1999.90;999.90;;;;;;;17.69;43.57;98690.28;5029015;28;20138;-65
2021/06/02 07:08:52;;;;;;;1999.90;999.90;;;;;;;18.57;42.88;98688.91;5031711;28;20096;-66
2021/06/02 07:11:20;;;;;;;1999.90;999.90;;;;;;;18.04;44.64;98695.88;5028717;28;20057;-65
2021/06/02 07:13:47;;;;;;;1999.90;999.90;;;;;;;18.35;42.92;98693.28;5029413;28;20500;-66
2021/06/02 07:16:15;;;;;;;1999.90;999.90;;;;;;;19.10;43.13;98688.28;5031143;28;20112;-66
2021/06/02 07:18:47;;;;;;;1999.90;999.90;;;;;;;18.55;43.79;98686.50;5035786;28;20362;-65
2021/06/02 07:21:18;;;;;;;1999.90;999.90;;;;;;;19.27;43.26;98681.34;5042844;28;20400;-66
2021/06/02 07:23:45;;;;;;;1999.90;999.90;;;;;;;18.91;41.06;98687.16;5032248;28;20091;-65
2021/06/02 07:26:12;;;;;;;1999.90;999.90;;;;;;;18.77;40.15;98692.47;5037481;28;20461;-64
2021/06/02 07:28:58;;;;;;;1999.90;999.90;;;;;;;19.30;38.89;98681.41;5040226;28;20140;-65
2021/06/02 07:31:25;;;;;;;1999.90;999.90;;;;;;;19.74;38.24;98693.25;5039699;28;20351;-66
2021/06/02 07:33:52;;;;;;;1999.90;999.90;;;;;;;19.78;39.25;98682.94;5040465;28;20060;-66
2021/06/02 07:36:19;;;;;;;1999.90;999.90;;;;;;;18.84;40.98;98685.00;5041011;28;20494;-66
2021/06/02 07:38:46;;;;;;;1999.90;999.90;;;;;;;19.74;41.65;98690.44;5039469;28;20073;-65
2021/06/02 07:41:12;;;;;;;1999.90;999.90;;;;;;;20.20;39.36;98687.47;5040497;28;20115;-66
2021/06/02 07:43:39;;;;;;;1999.90;999.90;;;;;;;18.95;39.15;98693.66;5039438;28;20343;-65
2021/06/02 07:46:06;;;;;;;1999.90;999.90;;;;;;;19.88;39.56;98693.50;5039869;28;20125;-65
2021/06/02 07:48:33;;;;;;;1999.90;999.90;;;;;;;20.21;38.54;98694.72;5037993;28;20045;-66
2021/06/02 07:50:59;;;;;;;1999.90;999.90;;;;;;;19.28;38.42;98692.19;5040009;28;20106;-65
2021/06/02 07:53:27;;;;;;;1999.90;999.90;;;;;;;20.05;38.40;98701.34;5040414;28;20099;-66
2021/06/02 07:55:54;;;;;;;1999.90;999.90;;;;;;;20.45;38.10;98693.38;5039441;28;20214;-66
2021/06/02 07:58:21;;;;;;;1999.90;999.90;;;;;;;20.70;36.35;98698.50;5040868;28;20054;-65
2021/06/02 08:00:48;;;;;;;1999.90;999.90;;;;;;;19.79;38.00;98701.41;5038411;28;20045;-66
2021/06/02 08:03:14;;;;;;;1999.90;999.90;;;;;;;20.21;36.68;98698.31;5040980;28;20053;-66
2021/06/02 08:05:41;;;;;;;1999.90;999.90;;;;;;;20.64;35.26;98700.03;5039021;28;20049;-65
2021/06/02 08:08:09;;;;;;;1999.90;999.90;;;;;;;21.03;33.66;98699.63;5038802;28;20088;-66
2021/06/02 08:10:37;;;;;;;1999.90;999.90;;;;;;;20.69;35.32;98697.72;5039936;28;20088;-66
2021/06/02 08:13:03;;;;;;;1999.90;999.90;;;;;;;20.71;34.90;98692.50;5039409;28;20053;-65
2021/06/02 08:15:30;;;;;;;1999.90;999.90;;;;;;;19.95;36.10;98699.22;5040222;28;20057;-65
2021/06/02 08:17:57;;;;;;;1999.90;999.90;;;;;;;21.01;34.39;98702.84;5039881;28;20092;-66
2021/06/02 08:20:24;;;;;;;1999.90;999.90;;;;;;;21.17;34.74;98694.16;5040785;28;20060;-66
2021/06/02 08:22:51;;;;;;;1999.90;999.90;;;;;;;20.96;34.63;98700.38;5039630;28;20101;-66
2021/06/02 08:25:18;;;;;;;1999.90;999.90;;;;;;;21.41;33.49;98698.34;5038957;28;20053;-66
2021/06/02 08:27:46;;;;;;;1999.90;999.90;;;;;;;22.22;33.30;98700.47;5039294;28;20291;-66
2021/06/02 08:30:14;;;;;;;1999.90;999.90;;;;;;;21.68;32.72;98698.16;5038676;28;20093;-66
2021/06/02 08:32:41;;;;;;;1999.90;999.90;;;;;;;21.29;32.96;98705.09;5039495;28;20060;-66
2021/06/02 08:35:10;;;;;;;1999.90;999.90;;;;;;;20.93;33.86;98703.94;5037699;28;20053;-66
2021/06/02 08:37:37;;;;;;;1999.90;999.90;;;;;;;22.12;33.33;98704.81;5040039;28;20049;-66
2021/06/02 08:40:06;;;;;;;1999.90;999.90;;;;;;;21.88;31.42;98709.13;5036976;28;20084;-66
2021/06/02 08:42:33;;;;;;;1999.90;999.90;;;;;;;22.13;30.93;98717.72;5040225;28;20054;-66
2021/06/02 08:45:00;;;;;;;1999.90;999.90;;;;;;;22.40;30.13;98717.47;5039704;28;20052;-66
2021/06/02 08:47:27;;;;;;;1999.90;999.90;;;;;;;21.02;32.88;98715.69;5038782;28;20049;-65
2021/06/02 08:49:53;;;;;;;1999.90;999.90;;;;;;;21.51;32.78;98713.72;5037437;28;20075;-66
2021/06/02 08:52:21;;;;;;;1999.90;999.90;;;;;;;21.78;32.92;98708.69;5036713;28;20424;-66
2021/06/02 08:54:48;;;;;;;1999.90;999.90;;;;;;;21.25;31.74;98712.69;5038916;28;20101;-65
2021/06/02 08:57:15;;;;;;;1999.90;999.90;;;;;;;19.63;35.74;98716.34;5037417;28;20053;-65
2021/06/02 08:59:42;;;;;;;1999.90;999.90;;;;;;;19.97;33.96;98722.09;5038749;28;20081;-66
2021/06/02 09:02:09;;;;;;;1999.90;999.90;;;;;;;20.62;33.42;98720.09;5035770;28;20103;-66
2021/06/02 09:04:37;;;;;;;1999.90;999.90;;;;;;;20.61;34.22;98720.47;5039017;28;20053;-66
2021/06/02 09:07:06;;;;;;;1999.90;999.90;;;;;;;20.29;33.61;98718.91;5039250;28;20106;-66
2021/06/02 09:09:33;;;;;;;1999.90;999.90;;;;;;;21.55;35.38;98719.38;5038266;28;20069;-66
2021/06/02 09:12:09;;;;;;;1999.90;999.90;;;;;;;22.25;33.61;98733.47;5039402;28;20135;-67
2021/06/02 09:14:38;;;;;;;1999.90;999.90;;;;;;;22.72;30.53;98722.38;5036785;28;20049;-66
2021/06/02 09:17:11;;;;;;;1999.90;999.90;;;;;;;20.72;32.82;98724.22;5038761;28;20053;-66
2021/06/02 09:19:44;;;;;;;1999.90;999.90;;;;;;;20.96;32.79;98724.88;5037996;28;20537;-66
2021/06/02 09:22:16;;;;;;;1999.90;999.90;;;;;;;20.40;33.13;98727.44;5037973;28;20115;-66
2021/06/02 09:25:04;;;;;;;1999.90;999.90;;;;;;;20.58;34.83;98719.22;5037937;28;20126;-66
2021/06/02 09:27:50;;;;;;;1999.90;999.90;;;;;;;20.74;32.81;98716.22;5026895;28;20071;-65
2021/06/02 09:30:24;;;;;;;1999.90;999.90;;;;;;;20.60;33.89;98722.44;5038397;28;20054;-66
2021/06/02 09:32:57;;;;;;;1999.90;999.90;;;;;;;20.98;33.01;98725.31;5039167;28;20056;-66
2021/06/02 09:35:41;;;;;;;1999.90;999.90;;;;;;;20.10;35.86;98724.63;5051167;28;20115;-66
2021/06/02 09:38:25;;;;;;;1999.90;999.90;;;;;;;20.98;35.16;98714.06;5038763;28;20375;-67
2021/06/02 09:40:54;;;;;;;1999.90;999.90;;;;;;;21.31;34.73;98724.38;5038238;28;20049;-66
2021/06/02 09:43:34;;;;;;;1999.90;999.90;;;;;;;22.68;31.69;98723.16;5037880;28;20045;-67
2021/06/02 09:46:10;;;;;;;1999.90;999.90;;;;;;;22.89;29.90;98715.19;5038390;28;20443;-67
2021/06/02 09:48:40;;;;;;;1999.90;999.90;;;;;;;23.39;29.11;98709.59;5038191;28;20065;-67
2021/06/02 09:51:38;;;;;;;1999.90;999.90;;;;;;;23.09;30.87;98707.97;5037595;28;20059;-67
2021/06/02 09:54:09;;;;;;;1999.90;999.90;;;;;;;23.00;30.94;98725.28;5037172;28;20484;-66
2021/06/02 09:56:41;;;;;;;1999.90;999.90;;;;;;;22.12;32.77;98719.72;5036742;28;20092;-67
2021/06/02 09:59:12;;;;;;;1999.90;999.90;;;;;;;22.38;30.38;98717.84;5038473;28;20046;-66
2021/06/02 10:01:55;;;;;;;1999.90;999.90;;;;;;;21.91;31.51;98714.81;5036269;28;20053;-67
2021/06/02 10:04:35;;;;;;;1999.90;999.90;;;;;;;21.36;32.90;98712.78;5037888;28;20054;-66
2021/06/02 10:07:03;;;;;;;1999.90;999.90;;;;;;;21.91;34.41;98713.97;5037575;28;20510;-66
2021/06/02 10:09:35;;;;;;;1999.90;999.90;;;;;;;22.00;33.99;98717.22;5036177;28;20045;-66
2021/06/02 10:12:08;;;;;;;1999.90;999.90;;;;;;;20.96;32.77;98722.88;5037691;28;20052;-65
2021/06/02 10:14:40;;;;;;;1999.90;999.90;;;;;;;21.50;35.78;98720.53;5036384;28;20355;-66
2021/06/02 10:17:31;;;;;;;1999.90;999.90;;;;;;;21.91;34.26;98702.72;5038013;28;20146;-66
2021/06/02 10:20:04;;;;;;;1999.90;999.90;;;;;;;23.71;31.96;98703.13;5030186;28;20122;-67
2021/06/02 10:22:31;;;;;;;1999.90;999.90;;;;;;;22.99;30.44;98712.38;5037491;28;20050;-67
2021/06/02 10:25:00;;;;;;;1999.90;999.90;;;;;;;23.82;30.28;98709.56;5036951;28;20130;-66
2021/06/02 10:27:27;;;;;;;1999.90;999.90;;;;;;;22.63;32.01;98719.97;5035809;28;20053;-66
2021/06/02 10:29:55;;;;;;;1999.90;999.90;;;;;;;22.09;34.03;98712.06;5037262;28;20073;-67
2021/06/02 10:32:23;;;;;;;1999.90;999.90;;;;;;;22.11;32.52;98714.50;5040628;28;20084;-66
2021/06/02 10:34:52;;;;;;;1999.90;999.90;;;;;;;23.72;29.04;98711.16;5041129;28;20110;-67
2021/06/02 10:37:21;;;;;;;1999.90;999.90;;;;;;;22.84;32.00;98720.00;5042485;28;20064;-66
2021/06/02 10:40:02;;;;;;;1999.90;999.90;;;;;;;22.89;32.84;98710.34;5039846;28;20388;-67
2021/06/02 10:42:55;;;;;;;1999.90;999.90;;;;;;;22.65;31.92;98709.09;5041757;28;20412;-66
2021/06/02 10:45:24;;;;;;;1999.90;999.90;;;;;;;22.45;34.53;98720.69;5041873;28;20045;-66
2021/06/02 10:47:56;;;;;;;1999.90;999.90;;;;;;;23.20;31.27;98708.78;5040531;28;20052;-67
2021/06/02 10:50:28;;;;;;;1999.90;999.90;;;;;;;24.01;30.11;98702.69;5040822;28;20590;-66
2021/06/02 10:52:55;;;;;;;1999.90;999.90;;;;;;;24.31;29.55;98701.38;5040655;28;20091;-67
2021/06/02 10:55:49;;;;;;;1999.90;999.90;;;;;;;24.56;31.41;98706.06;5043196;28;20090;-67
2021/06/02 10:58:24;;;;;;;1999.90;999.90;;;;;;;25.70;27.68;98708.53;5039452;28;20429;-67
2021/06/02 11:01:09;;;;;;;1999.90;999.90;;;;;;;24.37;28.00;98708.19;5040923;28;20049;-66
2021/06/02 11:03:38;;;;;;;1999.90;999.90;;;;;;;21.56;31.65;98710.53;5042044;28;20076;-66
2021/06/02 11:06:14;;;;;;;1999.90;999.90;;;;;;;21.05;34.70;98706.50;5039422;28;20098;-66
2021/06/02 11:08:50;;;;;;;1999.90;999.90;;;;;;;22.53;34.09;98698.19;5041386;28;20049;-66
2021/06/02 11:11:28;;;;;;;1999.90;999.90;;;;;;;24.01;32.47;98701.84;5040111;28;20419;-67
2021/06/02 11:14:17;;;;;;;1999.90;999.90;;;;;;;24.62;30.14;98698.78;5040505;28;20052;-67
2021/06/02 11:16:54;;;;;;;1999.90;999.90;;;;;;;23.99;31.95;98690.97;5042044;28;20169;-66
2021/06/02 11:19:23;;;;;;;1999.90;999.90;;;;;;;24.47;29.62;98705.72;5040048;28;20123;-67
2021/06/02 11:21:53;;;;;;;1999.90;999.90;;;;;;;24.98;30.01;98703.44;5040518;28;20099;-67
2021/06/02 11:24:32;;;;;;;1999.90;999.90;;;;;;;24.93;26.95;98701.84;5040835;28;20207;-67
2021/06/02 11:29:44;;;;;;;1999.90;999.90;;;;;;;23.40;30.45;98705.56;5037922;28;20102;-67
2021/06/02 11:32:27;;;;;;;1999.90;999.90;;;;;;;25.05;28.54;98704.16;5037715;28;20045;-67
2021/06/02 11:34:56;;;;;;;1999.90;999.90;;;;;;;24.12;31.14;98699.00;5039446;28;20115;-67
2021/06/02 11:37:27;;;;;;;1999.90;999.90;;;;;;;25.27;31.18;98699.16;5039019;28;20493;-67
2021/06/02 11:39:55;;;;;;;;;;;;;;;25.05;27.90;98709.03;5039920;28;20103;-67